Time;durP1;ratioP1;P1;durP2;ratioP2;P2;SDS_P1;SDS_P2;PMS_P1;PMS_P2;Temp;Humidity;BMP_temperature;BMP_pressure;BME280_temperature;BME280_humidity;BME280_pressure;Samples;Min_cycle;Max_cycle;Signal;HPM_P1;HPM_P2
2024/03/06 00:01:01;;;;;;;;;12.00;9.00;;;;;;;;5085870;27;45815;-47
2024/03/06 00:03:27;;;;;;;;;13.67;12.33;;;;;;;;5077924;27;46416;-47
2024/03/06 00:05:52;;;;;;;;;12.33;12.33;;;;;;;;5072271;27;45358;-47
2024/03/06 00:08:17;;;;;;;;;17.33;12.33;;;;;;;;5083665;27;45420;-48
2024/03/06 00:10:42;;;;;;;;;14.67;11.33;;;;;;;;5089238;27;45267;-50
2024/03/06 00:13:08;;;;;;;;;13.67;11.33;;;;;;;;5072699;27;47465;-47
2024/03/06 00:15:33;;;;;;;;;13.00;11.67;;;;;;;;5086631;27;45408;-47
2024/03/06 00:17:59;;;;;;;;;11.00;10.00;;;;;;;;5080949;27;45429;-47
2024/03/06 00:20:24;;;;;;;;;13.33;11.67;;;;;;;;5081232;27;45489;-47
2024/03/06 00:22:50;;;;;;;;;10.33;10.33;;;;;;;;5079242;27;46188;-48
2024/03/06 00:25:15;;;;;;;;;14.00;12.33;;;;;;;;5082530;27;45902;-50
2024/03/06 00:27:40;;;;;;;;;13.00;12.00;;;;;;;;5079802;27;46379;-48
2024/03/06 00:30:06;;;;;;;;;16.67;13.00;;;;;;;;5087339;27;45501;-47
2024/03/06 00:32:32;;;;;;;;;13.33;13.33;;;;;;;;5088668;27;46234;-50
2024/03/06 00:34:57;;;;;;;;;15.00;11.33;;;;;;;;5084615;27;45528;-49
2024/03/06 00:37:22;;;;;;;;;13.00;13.00;;;;;;;;5080966;27;45363;-50
2024/03/06 00:39:47;;;;;;;;;13.67;13.00;;;;;;;;5077881;28;45461;-48
2024/03/06 00:42:13;;;;;;;;;13.67;13.33;;;;;;;;5083485;27;46427;-50
2024/03/06 00:44:39;;;;;;;;;10.67;10.67;;;;;;;;5076402;27;45503;-49
2024/03/06 00:47:04;;;;;;;;;16.00;13.50;;;;;;;;5083904;27;45575;-50
2024/03/06 00:49:29;;;;;;;;;16.00;15.00;;;;;;;;5082766;27;45369;-48
2024/03/06 00:51:54;;;;;;;;;16.67;14.33;;;;;;;;5077855;27;46974;-49
2024/03/06 00:54:19;;;;;;;;;19.67;14.33;;;;;;;;5074664;27;45287;-49
2024/03/06 00:56:44;;;;;;;;;20.33;15.33;;;;;;;;5080100;27;45153;-50
2024/03/06 00:59:10;;;;;;;;;15.67;13.67;;;;;;;;5084201;27;45354;-49
2024/03/06 01:01:35;;;;;;;;;16.33;15.00;;;;;;;;5081278;27;46287;-51
2024/03/06 01:04:01;;;;;;;;;16.00;14.00;;;;;;;;5082993;27;45339;-51
2024/03/06 01:06:26;;;;;;;;;16.67;13.67;;;;;;;;5090478;27;45631;-48
2024/03/06 01:08:51;;;;;;;;;19.67;16.67;;;;;;;;5074597;27;45220;-48
2024/03/06 01:11:16;;;;;;;;;21.33;18.67;;;;;;;;5080552;27;46408;-49
2024/03/06 01:13:42;;;;;;;;;17.33;16.33;;;;;;;;5084280;27;45428;-51
2024/03/06 01:16:07;;;;;;;;;22.00;18.67;;;;;;;;5077583;27;45424;-50
2024/03/06 01:18:32;;;;;;;;;21.67;18.33;;;;;;;;5084127;27;46718;-47
2024/03/06 01:20:57;;;;;;;;;18.33;16.00;;;;;;;;5080179;27;46199;-50
2024/03/06 01:23:22;;;;;;;;;20.33;15.00;;;;;;;;5077805;27;45693;-47
2024/03/06 01:25:48;;;;;;;;;21.00;17.67;;;;;;;;5075957;27;45285;-49
2024/03/06 01:28:13;;;;;;;;;23.67;20.00;;;;;;;;5075692;27;45369;-50
2024/03/06 01:30:38;;;;;;;;;30.33;22.67;;;;;;;;5074007;27;46725;-48
2024/03/06 01:33:04;;;;;;;;;24.67;20.67;;;;;;;;5076720;27;45577;-48
2024/03/06 01:35:30;;;;;;;;;20.67;17.00;;;;;;;;5073770;28;45791;-47
2024/03/06 01:37:55;;;;;;;;;26.33;18.67;;;;;;;;5078480;27;45366;-50
2024/03/06 01:40:20;;;;;;;;;24.00;23.33;;;;;;;;5077852;27;45526;-46
2024/03/06 01:42:46;;;;;;;;;20.33;18.33;;;;;;;;5080410;27;45509;-46
2024/03/06 01:45:11;;;;;;;;;26.67;22.33;;;;;;;;5078935;27;45562;-47
2024/03/06 01:47:36;;;;;;;;;22.00;19.00;;;;;;;;5087163;27;45603;-47
2024/03/06 01:50:02;;;;;;;;;23.33;19.33;;;;;;;;5083870;27;45281;-49
2024/03/06 01:52:27;;;;;;;;;25.33;17.33;;;;;;;;5084105;27;45471;-49
2024/03/06 01:54:53;;;;;;;;;22.33;21.00;;;;;;;;5079187;27;45428;-49
2024/03/06 01:57:19;;;;;;;;;24.00;19.00;;;;;;;;5082447;27;45402;-47
2024/03/06 01:59:44;;;;;;;;;17.33;15.67;;;;;;;;5081417;27;45698;-50
2024/03/06 02:02:11;;;;;;;;;20.67;19.00;;;;;;;;5082490;27;45702;-51
2024/03/06 02:04:36;;;;;;;;;17.67;17.00;;;;;;;;5081448;27;45745;-49
2024/03/06 02:07:02;;;;;;;;;24.67;19.67;;;;;;;;5075999;27;45388;-47
2024/03/06 02:09:27;;;;;;;;;19.00;19.00;;;;;;;;5081536;27;45428;-49
2024/03/06 02:11:53;;;;;;;;;21.00;17.67;;;;;;;;5082741;27;45911;-46
2024/03/06 02:14:19;;;;;;;;;16.33;16.00;;;;;;;;5083049;27;45275;-50
2024/03/06 02:16:44;;;;;;;;;24.67;20.67;;;;;;;;5081579;27;45482;-49
2024/03/06 02:19:09;;;;;;;;;25.33;20.67;;;;;;;;5080259;27;46489;-46
2024/03/06 02:21:34;;;;;;;;;28.33;21.67;;;;;;;;5085340;27;45466;-51
2024/03/06 02:23:59;;;;;;;;;24.00;22.67;;;;;;;;5079860;27;45452;-49
2024/03/06 02:26:25;;;;;;;;;20.00;17.67;;;;;;;;5081077;27;45415;-52
2024/03/06 02:28:50;;;;;;;;;28.67;21.67;;;;;;;;5085911;27;45966;-49
2024/03/06 02:31:16;;;;;;;;;21.00;16.67;;;;;;;;5085632;27;45582;-51
2024/03/06 02:33:41;;;;;;;;;21.33;17.67;;;;;;;;5080785;27;45466;-49
2024/03/06 02:36:06;;;;;;;;;24.67;22.67;;;;;;;;5083548;27;45632;-50
2024/03/06 02:38:31;;;;;;;;;15.67;12.33;;;;;;;;5086166;27;46153;-49
2024/03/06 02:40:57;;;;;;;;;17.00;16.67;;;;;;;;5079372;27;45412;-49
2024/03/06 02:43:22;;;;;;;;;26.00;22.33;;;;;;;;5084611;27;45581;-49
2024/03/06 02:45:47;;;;;;;;;26.00;22.33;;;;;;;;5082633;27;45493;-50
2024/03/06 02:48:12;;;;;;;;;22.33;19.33;;;;;;;;5080314;27;45623;-48
2024/03/06 02:50:37;;;;;;;;;22.67;20.33;;;;;;;;5086539;27;45532;-51
2024/03/06 02:53:02;;;;;;;;;21.33;21.00;;;;;;;;5084454;27;45627;-50
2024/03/06 02:55:28;;;;;;;;;33.33;28.33;;;;;;;;5086171;27;45340;-50
2024/03/06 02:57:53;;;;;;;;;25.00;21.33;;;;;;;;5085352;27;46302;-48
2024/03/06 03:00:18;;;;;;;;;30.67;22.67;;;;;;;;5080254;27;45344;-48
2024/03/06 03:02:43;;;;;;;;;29.33;24.33;;;;;;;;5083042;27;45413;-51
2024/03/06 03:05:08;;;;;;;;;34.67;28.67;;;;;;;;5082782;27;45764;-47
2024/03/06 03:07:34;;;;;;;;;31.67;24.33;;;;;;;;5080822;27;45590;-46
2024/03/06 03:09:59;;;;;;;;;28.00;24.00;;;;;;;;5083732;27;45511;-49
2024/03/06 03:12:24;;;;;;;;;30.67;27.00;;;;;;;;5086063;27;45384;-51
2024/03/06 03:14:49;;;;;;;;;28.00;21.00;;;;;;;;5078365;27;45490;-51
2024/03/06 03:17:15;;;;;;;;;24.67;23.67;;;;;;;;5079698;27;46932;-50
2024/03/06 03:19:40;;;;;;;;;32.33;29.00;;;;;;;;5086066;27;45470;-51
2024/03/06 03:22:05;;;;;;;;;32.00;25.00;;;;;;;;5085974;27;45417;-48
2024/03/06 03:24:31;;;;;;;;;34.00;32.67;;;;;;;;5080070;27;45568;-48
2024/03/06 03:26:56;;;;;;;;;29.67;28.00;;;;;;;;5081436;27;47326;-48
2024/03/06 03:29:21;;;;;;;;;34.33;27.33;;;;;;;;5081717;27;45598;-51
2024/03/06 03:31:46;;;;;;;;;38.00;31.00;;;;;;;;5084063;27;45473;-48
2024/03/06 03:34:12;;;;;;;;;36.00;31.67;;;;;;;;5085337;27;45205;-50
2024/03/06 03:36:43;;;;;;;;;39.00;32.67;;;;;;;;5082406;27;46433;-50
2024/03/06 03:39:17;;;;;;;;;41.00;31.33;;;;;;;;5080782;27;45497;-48
2024/03/06 03:41:43;;;;;;;;;39.00;25.00;;;;;;;;5081783;27;45306;-49
2024/03/06 03:44:08;;;;;;;;;41.33;33.00;;;;;;;;5090800;27;45286;-47
2024/03/06 03:46:33;;;;;;;;;31.67;25.00;;;;;;;;5079670;27;45598;-47
2024/03/06 03:48:58;;;;;;;;;34.67;29.67;;;;;;;;5081175;27;45476;-47
2024/03/06 03:51:23;;;;;;;;;35.67;27.67;;;;;;;;5083651;27;45693;-48
2024/03/06 03:53:50;;;;;;;;;37.00;31.67;;;;;;;;5075494;27;45465;-47
2024/03/06 03:56:16;;;;;;;;;31.33;26.00;;;;;;;;5075018;27;46192;-52
2024/03/06 03:58:41;;;;;;;;;33.00;28.67;;;;;;;;5086586;27;45342;-50
2024/03/06 04:01:06;;;;;;;;;33.00;27.67;;;;;;;;5084159;27;45596;-48
2024/03/06 04:03:31;;;;;;;;;39.00;28.33;;;;;;;;5081850;27;45644;-48
2024/03/06 04:05:57;;;;;;;;;36.00;30.33;;;;;;;;5080044;27;45494;-47
2024/03/06 04:08:22;;;;;;;;;29.33;27.33;;;;;;;;5071229;27;45185;-48
2024/03/06 04:10:47;;;;;;;;;28.67;24.67;;;;;;;;5084851;27;45710;-48
2024/03/06 04:13:12;;;;;;;;;38.00;28.33;;;;;;;;5084123;27;45406;-49
2024/03/06 04:15:37;;;;;;;;;26.67;24.33;;;;;;;;5081701;27;45856;-47
2024/03/06 04:18:03;;;;;;;;;29.00;24.33;;;;;;;;5081382;27;45243;-49
2024/03/06 04:20:28;;;;;;;;;29.67;26.00;;;;;;;;5078999;27;45379;-47
2024/03/06 04:22:53;;;;;;;;;29.67;24.67;;;;;;;;5082608;27;45401;-48
2024/03/06 04:25:18;;;;;;;;;32.33;29.00;;;;;;;;5084368;27;46680;-50
2024/03/06 04:27:44;;;;;;;;;38.33;32.00;;;;;;;;5083877;27;45332;-47
2024/03/06 04:30:09;;;;;;;;;28.33;26.00;;;;;;;;5080404;27;45277;-49
2024/03/06 04:32:34;;;;;;;;;33.33;24.00;;;;;;;;5082223;27;45626;-49
2024/03/06 04:34:59;;;;;;;;;28.33;25.33;;;;;;;;5084855;27;45386;-50
2024/03/06 04:37:26;;;;;;;;;29.67;27.67;;;;;;;;5079768;27;45305;-48
2024/03/06 04:39:51;;;;;;;;;34.67;25.67;;;;;;;;5089516;27;45564;-49
2024/03/06 04:42:17;;;;;;;;;32.00;26.33;;;;;;;;5085406;27;45397;-51
2024/03/06 04:44:43;;;;;;;;;26.33;23.33;;;;;;;;5084744;27;46139;-48
2024/03/06 04:47:08;;;;;;;;;30.00;27.33;;;;;;;;5082260;27;45447;-49
2024/03/06 04:49:34;;;;;;;;;34.33;26.67;;;;;;;;5088353;27;45283;-48
2024/03/06 04:51:59;;;;;;;;;32.67;26.00;;;;;;;;5085286;27;45394;-47
2024/03/06 04:54:24;;;;;;;;;36.00;25.33;;;;;;;;5076969;27;46275;-48
2024/03/06 04:56:50;;;;;;;;;34.67;23.67;;;;;;;;5083484;27;45203;-50
2024/03/06 04:59:15;;;;;;;;;29.67;25.33;;;;;;;;5083444;27;45287;-49
2024/03/06 05:01:40;;;;;;;;;36.67;30.00;;;;;;;;5080151;27;45524;-51
2024/03/06 05:04:05;;;;;;;;;26.67;23.00;;;;;;;;5080473;27;46330;-48
2024/03/06 05:06:32;;;;;;;;;23.00;20.00;;;;;;;;5076397;27;45541;-49
2024/03/06 05:08:57;;;;;;;;;28.33;24.33;;;;;;;;5078295;27;45481;-51
2024/03/06 05:11:22;;;;;;;;;24.00;21.33;;;;;;;;5078097;27;45440;-48
2024/03/06 05:13:47;;;;;;;;;27.33;27.00;;;;;;;;5083441;27;45608;-46
2024/03/06 05:16:12;;;;;;;;;32.00;23.33;;;;;;;;5078470;27;45307;-46
2024/03/06 05:18:37;;;;;;;;;28.67;21.33;;;;;;;;5083850;27;45555;-49
2024/03/06 05:21:03;;;;;;;;;32.67;26.33;;;;;;;;5081980;27;45265;-48
2024/03/06 05:23:29;;;;;;;;;28.33;26.67;;;;;;;;5080721;27;46723;-47
2024/03/06 05:25:54;;;;;;;;;28.50;26.50;;;;;;;;5081722;27;45349;-49
2024/03/06 05:28:19;;;;;;;;;30.33;28.67;;;;;;;;5087101;27;45645;-48
2024/03/06 05:30:44;;;;;;;;;32.33;29.00;;;;;;;;5084821;27;45257;-50
2024/03/06 05:33:10;;;;;;;;;31.33;24.67;;;;;;;;5076923;27;45416;-48
2024/03/06 05:35:36;;;;;;;;;36.33;24.00;;;;;;;;5080297;27;46083;-47
2024/03/06 05:38:01;;;;;;;;;26.33;24.00;;;;;;;;5090171;27;45441;-48
2024/03/06 05:40:26;;;;;;;;;25.33;24.67;;;;;;;;5079023;27;45760;-50
2024/03/06 05:42:51;;;;;;;;;29.00;26.33;;;;;;;;5080173;27;45508;-46
2024/03/06 05:45:17;;;;;;;;;27.00;24.33;;;;;;;;5080179;27;45289;-47
2024/03/06 05:47:42;;;;;;;;;25.67;25.67;;;;;;;;5080063;27;45479;-46
2024/03/06 05:50:07;;;;;;;;;31.00;29.00;;;;;;;;5078282;27;45327;-47
2024/03/06 05:52:34;;;;;;;;;30.67;26.00;;;;;;;;5084267;27;46114;-46
2024/03/06 05:54:59;;;;;;;;;31.67;29.00;;;;;;;;5076389;27;45464;-46
2024/03/06 05:57:24;;;;;;;;;27.00;23.33;;;;;;;;5084135;27;45456;-47
2024/03/06 05:59:50;;;;;;;;;39.67;25.67;;;;;;;;5079292;27;45400;-47
2024/03/06 06:02:16;;;;;;;;;32.67;27.00;;;;;;;;5071706;27;45373;-50
2024/03/06 06:04:41;;;;;;;;;29.67;27.00;;;;;;;;5074149;27;45557;-47
2024/03/06 06:07:06;;;;;;;;;30.33;25.00;;;;;;;;5077739;27;45836;-50
2024/03/06 06:09:32;;;;;;;;;28.00;25.00;;;;;;;;5080270;27;45647;-47
2024/03/06 06:11:58;;;;;;;;;31.00;24.67;;;;;;;;5083121;27;47079;-46
2024/03/06 06:14:23;;;;;;;;;27.67;23.00;;;;;;;;5082695;27;45337;-47
2024/03/06 06:16:48;;;;;;;;;31.33;27.33;;;;;;;;5077385;27;45455;-47
2024/03/06 06:19:13;;;;;;;;;35.00;27.00;;;;;;;;5076150;27;45613;-48
2024/03/06 06:21:39;;;;;;;;;29.00;22.33;;;;;;;;5077963;27;46272;-47
2024/03/06 06:24:04;;;;;;;;;20.67;16.00;;;;;;;;5077859;27;45458;-49
2024/03/06 06:26:30;;;;;;;;;19.33;18.33;;;;;;;;5082666;27;45445;-48
2024/03/06 06:28:56;;;;;;;;;23.33;20.33;;;;;;;;5076612;28;45544;-47
2024/03/06 06:31:21;;;;;;;;;21.00;18.33;;;;;;;;5085019;27;45729;-46
2024/03/06 06:33:47;;;;;;;;;21.67;19.00;;;;;;;;5078485;27;45453;-48
2024/03/06 06:36:12;;;;;;;;;19.00;16.33;;;;;;;;5082542;27;45538;-49
2024/03/06 06:38:37;;;;;;;;;22.33;19.33;;;;;;;;5083909;27;45483;-51
2024/03/06 06:41:03;;;;;;;;;27.33;20.33;;;;;;;;5085814;27;45601;-47
2024/03/06 06:43:28;;;;;;;;;26.33;18.67;;;;;;;;5079697;27;45328;-52
2024/03/06 06:45:53;;;;;;;;;22.33;22.33;;;;;;;;5079518;27;45593;-52
2024/03/06 06:48:18;;;;;;;;;25.00;20.67;;;;;;;;5081289;27;45354;-51
2024/03/06 06:50:43;;;;;;;;;22.67;19.67;;;;;;;;5082723;27;45459;-49
2024/03/06 06:53:09;;;;;;;;;26.33;21.67;;;;;;;;5078808;27;46117;-51
2024/03/06 06:55:36;;;;;;;;;26.33;20.67;;;;;;;;5080965;27;45786;-50
2024/03/06 06:58:01;;;;;;;;;24.00;21.00;;;;;;;;5081081;27;45454;-52
2024/03/06 07:00:26;;;;;;;;;21.00;18.67;;;;;;;;5078568;27;46201;-52
2024/03/06 07:02:51;;;;;;;;;23.00;20.00;;;;;;;;5078194;27;45928;-51
2024/03/06 07:05:17;;;;;;;;;28.33;22.33;;;;;;;;5087428;27;45537;-51
2024/03/06 07:07:42;;;;;;;;;23.67;23.00;;;;;;;;5083527;27;45520;-52
2024/03/06 07:10:08;;;;;;;;;25.67;20.33;;;;;;;;5082155;27;46385;-51
2024/03/06 07:12:34;;;;;;;;;20.33;18.00;;;;;;;;5086659;27;45581;-52
2024/03/06 07:14:59;;;;;;;;;22.67;18.33;;;;;;;;5076800;27;45487;-51
2024/03/06 07:17:24;;;;;;;;;24.33;18.33;;;;;;;;5077393;27;45280;-52
2024/03/06 07:19:50;;;;;;;;;26.33;21.00;;;;;;;;5085715;27;45750;-48
2024/03/06 07:22:16;;;;;;;;;20.33;16.33;;;;;;;;5078385;27;45565;-49
2024/03/06 07:24:41;;;;;;;;;26.00;21.67;;;;;;;;5080502;27;45429;-48
2024/03/06 07:27:08;;;;;;;;;23.00;20.33;;;;;;;;5080791;27;45476;-48
2024/03/06 07:29:34;;;;;;;;;23.33;21.00;;;;;;;;5082088;27;45590;-51
2024/03/06 07:32:00;;;;;;;;;27.00;23.33;;;;;;;;5080133;27;45840;-51
2024/03/06 07:34:25;;;;;;;;;30.67;24.33;;;;;;;;5082115;27;45243;-51
2024/03/06 07:36:50;;;;;;;;;31.33;24.00;;;;;;;;5083382;27;45389;-51
2024/03/06 07:39:15;;;;;;;;;23.00;19.00;;;;;;;;5083131;27;46350;-50
2024/03/06 07:41:41;;;;;;;;;21.33;21.00;;;;;;;;5084329;27;45657;-52
2024/03/06 07:44:06;;;;;;;;;16.00;15.33;;;;;;;;5078727;27;45484;-49
2024/03/06 07:46:31;;;;;;;;;18.67;18.67;;;;;;;;5071806;27;45408;-50
2024/03/06 07:48:56;;;;;;;;;21.67;21.00;;;;;;;;5071447;27;45692;-49
2024/03/06 07:51:21;;;;;;;;;24.67;22.33;;;;;;;;5068593;27;45405;-51
2024/03/06 07:53:47;;;;;;;;;30.67;24.00;;;;;;;;5071500;27;46708;-51
2024/03/06 07:56:12;;;;;;;;;24.00;21.67;;;;;;;;5075382;27;45505;-51
2024/03/06 07:58:38;;;;;;;;;19.67;19.00;;;;;;;;5074662;27;46241;-50
2024/03/06 08:01:03;;;;;;;;;25.67;23.00;;;;;;;;5073094;27;45476;-52
2024/03/06 08:03:29;;;;;;;;;27.00;21.00;;;;;;;;5071726;27;45568;-53
2024/03/06 08:05:54;;;;;;;;;23.00;22.33;;;;;;;;5073147;27;46438;-51
2024/03/06 08:08:19;;;;;;;;;22.33;18.67;;;;;;;;5071036;27;46412;-50
2024/03/06 08:10:44;;;;;;;;;24.67;23.33;;;;;;;;5074835;27;45606;-51
2024/03/06 08:13:10;;;;;;;;;27.00;24.00;;;;;;;;5077132;27;45377;-52
2024/03/06 08:15:35;;;;;;;;;27.67;21.33;;;;;;;;5075932;27;45706;-52
2024/03/06 08:18:00;;;;;;;;;23.33;18.67;;;;;;;;5071124;27;45492;-54
2024/03/06 08:20:27;;;;;;;;;24.00;23.00;;;;;;;;5076435;27;45806;-51
2024/03/06 08:22:52;;;;;;;;;33.50;25.50;;;;;;;;5078867;27;45442;-50
2024/03/06 08:25:17;;;;;;;;;27.67;25.00;;;;;;;;5072736;27;45428;-49
2024/03/06 08:27:43;;;;;;;;;33.00;24.33;;;;;;;;5070346;27;48282;-52
2024/03/06 08:30:08;;;;;;;;;34.33;29.00;;;;;;;;5074713;27;45405;-52
2024/03/06 08:32:35;;;;;;;;;28.00;25.00;;;;;;;;5082067;27;45434;-52
2024/03/06 08:35:11;;;;;;;;;29.00;20.00;;;;;;;;5081512;27;45435;-50
2024/03/06 08:37:36;;;;;;;;;31.33;26.67;;;;;;;;5079177;27;46356;-50
2024/03/06 08:40:02;;;;;;;;;30.67;27.33;;;;;;;;5079737;27;45617;-51
2024/03/06 08:42:27;;;;;;;;;29.67;27.00;;;;;;;;5082362;27;45436;-53
2024/03/06 08:44:52;;;;;;;;;34.33;28.00;;;;;;;;5079776;27;45359;-50
2024/03/06 08:47:18;;;;;;;;;36.33;29.00;;;;;;;;5081586;27;46316;-51
2024/03/06 08:49:43;;;;;;;;;27.00;25.00;;;;;;;;5082069;27;45314;-49
2024/03/06 08:52:09;;;;;;;;;32.33;29.00;;;;;;;;5082284;27;45481;-52
2024/03/06 08:54:35;;;;;;;;;30.67;28.67;;;;;;;;5080654;27;45552;-51
2024/03/06 08:57:00;;;;;;;;;29.67;26.33;;;;;;;;5079497;27;46132;-51
2024/03/06 08:59:25;;;;;;;;;27.67;27.00;;;;;;;;5060012;28;45370;-51
2024/03/06 09:01:54;;;;;;;;;36.67;27.00;;;;;;;;5082620;27;45589;-52
2024/03/06 09:04:19;;;;;;;;;31.33;27.00;;;;;;;;5086763;27;45458;-52
2024/03/06 09:06:44;;;;;;;;;35.33;27.33;;;;;;;;5088222;27;46328;-51
2024/03/06 09:09:10;;;;;;;;;34.67;29.33;;;;;;;;5084734;27;45562;-53
2024/03/06 09:11:35;;;;;;;;;28.33;23.00;;;;;;;;5080211;27;45842;-50
2024/03/06 09:14:00;;;;;;;;;28.33;25.33;;;;;;;;5080327;27;46407;-50
2024/03/06 09:16:26;;;;;;;;;26.33;25.67;;;;;;;;5079603;27;46234;-52
2024/03/06 09:18:51;;;;;;;;;27.33;24.33;;;;;;;;5080621;27;45701;-51
2024/03/06 09:21:16;;;;;;;;;35.00;30.67;;;;;;;;5079169;27;45761;-51
2024/03/06 09:23:41;;;;;;;;;26.33;23.00;;;;;;;;5081013;27;45448;-52
2024/03/06 09:26:07;;;;;;;;;29.33;27.00;;;;;;;;5078078;27;45338;-52
2024/03/06 09:28:32;;;;;;;;;28.67;25.33;;;;;;;;5079500;27;45870;-52
2024/03/06 09:30:57;;;;;;;;;34.33;27.00;;;;;;;;5072770;27;46181;-52
2024/03/06 09:33:23;;;;;;;;;29.00;26.00;;;;;;;;5079022;27;45567;-51
2024/03/06 09:35:48;;;;;;;;;29.67;25.67;;;;;;;;5081744;27;47295;-52
2024/03/06 09:38:14;;;;;;;;;27.33;26.33;;;;;;;;5078162;27;45344;-53
2024/03/06 09:40:41;;;;;;;;;35.33;30.33;;;;;;;;5079086;27;45437;-53
2024/03/06 09:43:06;;;;;;;;;26.67;23.00;;;;;;;;5077729;27;45869;-53
2024/03/06 09:45:32;;;;;;;;;27.00;24.00;;;;;;;;5078966;27;45315;-52
2024/03/06 09:47:57;;;;;;;;;30.33;28.67;;;;;;;;5085557;27;45408;-52
2024/03/06 09:50:24;;;;;;;;;32.00;25.00;;;;;;;;5080384;27;45434;-53
2024/03/06 09:52:51;;;;;;;;;28.33;25.00;;;;;;;;5082603;27;46312;-53
2024/03/06 09:55:16;;;;;;;;;34.00;30.00;;;;;;;;5081838;27;46600;-53
2024/03/06 09:57:41;;;;;;;;;33.00;28.33;;;;;;;;5083801;27;45510;-51
2024/03/06 10:00:07;;;;;;;;;37.00;30.67;;;;;;;;5077560;27;45300;-49
2024/03/06 10:02:37;;;;;;;;;33.33;30.33;;;;;;;;5080028;27;45477;-50
2024/03/06 10:05:03;;;;;;;;;33.67;29.33;;;;;;;;5075377;27;45520;-53
2024/03/06 10:07:28;;;;;;;;;34.00;31.33;;;;;;;;5077576;27;45437;-52
2024/03/06 10:09:53;;;;;;;;;31.67;28.33;;;;;;;;5077002;27;45515;-52
2024/03/06 10:12:18;;;;;;;;;37.00;29.33;;;;;;;;5079367;27;45406;-53
2024/03/06 10:14:49;;;;;;;;;39.33;33.00;;;;;;;;5081627;27;46650;-49
2024/03/06 10:17:18;;;;;;;;;30.33;29.67;;;;;;;;5076725;27;45311;-49
2024/03/06 10:19:50;;;;;;;;;32.33;30.67;;;;;;;;5080484;27;45448;-50
2024/03/06 10:22:15;;;;;;;;;29.33;25.33;;;;;;;;5080408;27;45577;-51
2024/03/06 10:24:40;;;;;;;;;26.67;24.33;;;;;;;;5080113;27;46128;-53
2024/03/06 10:27:05;;;;;;;;;23.00;20.33;;;;;;;;5074334;27;45407;-50
2024/03/06 10:29:31;;;;;;;;;27.00;24.00;;;;;;;;5076789;27;45595;-51
2024/03/06 10:31:57;;;;;;;;;26.67;19.33;;;;;;;;5076041;27;46603;-54
2024/03/06 10:34:24;;;;;;;;;21.67;19.33;;;;;;;;5079751;27;46199;-52
2024/03/06 10:36:56;;;;;;;;;21.33;20.33;;;;;;;;5080057;27;45624;-53
2024/03/06 10:39:22;;;;;;;;;21.33;18.33;;;;;;;;5078023;27;45670;-52
2024/03/06 10:41:54;;;;;;;;;14.33;12.33;;;;;;;;5077274;27;45515;-53
2024/03/06 10:44:21;;;;;;;;;18.33;14.67;;;;;;;;5078262;27;46330;-52
2024/03/06 10:46:53;;;;;;;;;15.67;13.67;;;;;;;;5075499;27;45503;-50
2024/03/06 10:49:19;;;;;;;;;16.25;16.00;;;;;;;;5071291;27;45593;-51
2024/03/06 10:51:46;;;;;;;;;14.00;13.00;;;;;;;;5075764;27;45503;-49
2024/03/06 10:54:13;;;;;;;;;7.00;7.00;;;;;;;;5077606;27;45425;-52
2024/03/06 10:56:41;;;;;;;;;11.75;10.50;;;;;;;;5076921;27;45493;-49
2024/03/06 10:59:07;;;;;;;;;16.75;16.00;;;;;;;;5075131;27;45576;-49
2024/03/06 11:01:33;;;;;;;;;26.00;21.67;;;;;;;;5080631;27;45467;-50
2024/03/06 11:04:00;;;;;;;;;24.00;21.00;;;;;;;;5071881;27;45515;-53
2024/03/06 11:06:26;;;;;;;;;15.00;12.75;;;;;;;;5071979;27;45691;-49
2024/03/06 11:08:51;;;;;;;;;17.00;14.50;;;;;;;;5072249;27;45354;-48
2024/03/06 11:11:21;;;;;;;;;7.50;7.50;;;;;;;;5079332;27;45473;-50
2024/03/06 11:13:47;;;;;;;;;5.25;5.00;;;;;;;;5079248;27;47253;-51
2024/03/06 11:16:13;;;;;;;;;9.25;9.25;;;;;;;;5079629;27;45428;-52
2024/03/06 11:18:38;;;;;;;;;5.25;5.25;;;;;;;;5078980;27;45526;-51
2024/03/06 11:21:03;;;;;;;;;5.60;5.60;;;;;;;;5078299;27;45424;-52
2024/03/06 11:23:29;;;;;;;;;7.20;7.20;;;;;;;;5078664;27;45258;-51
2024/03/06 11:25:55;;;;;;;;;8.75;7.75;;;;;;;;5080091;27;45527;-51
2024/03/06 11:28:20;;;;;;;;;9.75;9.00;;;;;;;;5077848;27;45562;-50
2024/03/06 11:30:54;;;;;;;;;8.25;8.25;;;;;;;;5074816;27;45299;-51
2024/03/06 11:33:19;;;;;;;;;12.00;10.75;;;;;;;;5074019;27;49121;-49
2024/03/06 11:36:04;;;;;;;;;14.50;10.75;;;;;;;;5076480;27;45486;-52
2024/03/06 11:38:29;;;;;;;;;14.75;11.75;;;;;;;;5074151;27;45606;-51
2024/03/06 11:40:55;;;;;;;;;10.00;6.50;;;;;;;;5063843;27;45354;-48
2024/03/06 11:43:27;;;;;;;;;15.25;13.25;;;;;;;;5077662;27;45558;-50
2024/03/06 11:45:52;;;;;;;;;17.25;16.25;;;;;;;;5071963;27;45421;-52
2024/03/06 11:48:20;;;;;;;;;15.50;15.50;;;;;;;;5076384;27;45456;-50
2024/03/06 11:50:45;;;;;;;;;20.25;17.25;;;;;;;;5067615;27;45525;-49
2024/03/06 11:53:12;;;;;;;;;18.25;16.50;;;;;;;;5070080;27;45477;-49
2024/03/06 11:55:37;;;;;;;;;14.00;14.00;;;;;;;;5078994;27;45459;-48
2024/03/06 11:58:03;;;;;;;;;15.50;14.50;;;;;;;;5071734;27;45709;-49
2024/03/06 12:00:29;;;;;;;;;18.50;17.75;;;;;;;;5071738;27;45427;-50
2024/03/06 12:02:55;;;;;;;;;15.75;15.75;;;;;;;;5077978;27;46054;-49
2024/03/06 12:05:20;;;;;;;;;18.00;18.00;;;;;;;;5070602;27;45533;-53
2024/03/06 12:07:49;;;;;;;;;18.00;17.75;;;;;;;;5078854;27;45466;-52
2024/03/06 12:10:16;;;;;;;;;7.75;7.75;;;;;;;;5075427;27;45436;-51
2024/03/06 12:12:42;;;;;;;;;12.00;10.25;;;;;;;;5076274;27;46377;-49
2024/03/06 12:15:09;;;;;;;;;16.25;14.75;;;;;;;;5076624;27;45491;-52
2024/03/06 12:17:46;;;;;;;;;13.00;13.00;;;;;;;;5077629;27;45472;-49
2024/03/06 12:20:12;;;;;;;;;17.75;15.25;;;;;;;;5074909;27;45426;-52
2024/03/06 12:22:43;;;;;;;;;14.50;14.50;;;;;;;;5073423;27;45534;-51
2024/03/06 12:25:08;;;;;;;;;17.00;13.50;;;;;;;;5078454;27;45572;-52
2024/03/06 12:27:33;;;;;;;;;16.25;16.25;;;;;;;;5074574;27;45507;-51
2024/03/06 12:29:59;;;;;;;;;19.00;18.33;;;;;;;;5078531;27;45597;-49
2024/03/06 12:32:29;;;;;;;;;20.50;16.25;;;;;;;;5070508;27;47286;-50
2024/03/06 12:35:00;;;;;;;;;18.00;15.00;;;;;;;;5076288;27;45224;-51
2024/03/06 12:37:30;;;;;;;;;15.67;14.33;;;;;;;;5068864;27;45385;-52
2024/03/06 12:39:55;;;;;;;;;16.67;13.33;;;;;;;;5078218;27;45819;-51
2024/03/06 12:42:20;;;;;;;;;13.67;13.00;;;;;;;;5078716;27;45334;-51
2024/03/06 12:44:46;;;;;;;;;14.33;13.00;;;;;;;;5077223;27;46026;-52
2024/03/06 12:47:11;;;;;;;;;14.00;11.50;;;;;;;;5074486;27;45453;-53
2024/03/06 12:49:36;;;;;;;;;13.00;12.00;;;;;;;;5078557;27;45286;-52
2024/03/06 12:52:01;;;;;;;;;15.00;11.33;;;;;;;;5072271;27;46334;-52
2024/03/06 12:54:27;;;;;;;;;9.67;9.67;;;;;;;;5078348;27;45463;-48
2024/03/06 12:56:52;;;;;;;;;53.67;33.67;;;;;;;;5077388;27;45430;-50
2024/03/06 12:59:17;;;;;;;;;12.33;12.33;;;;;;;;5072534;27;45564;-52
2024/03/06 13:01:42;;;;;;;;;10.33;10.33;;;;;;;;5078316;27;45690;-53
2024/03/06 13:04:07;;;;;;;;;12.67;11.00;;;;;;;;5076251;27;45794;-53
2024/03/06 13:06:33;;;;;;;;;11.00;9.25;;;;;;;;5076711;27;45673;-54
2024/03/06 13:08:59;;;;;;;;;14.00;11.33;;;;;;;;5076326;27;45502;-54
2024/03/06 13:11:24;;;;;;;;;10.33;9.33;;;;;;;;5077070;27;46443;-56
2024/03/06 13:13:49;;;;;;;;;10.00;10.00;;;;;;;;5075218;27;44891;-53
2024/03/06 13:16:15;;;;;;;;;11.67;10.33;;;;;;;;5074648;27;45384;-53
2024/03/06 13:18:40;;;;;;;;;13.33;11.33;;;;;;;;5071970;27;45740;-53
2024/03/06 13:21:05;;;;;;;;;13.00;11.33;;;;;;;;5067776;27;46487;-52
2024/03/06 13:23:31;;;;;;;;;13.67;11.00;;;;;;;;5071881;27;45634;-53
2024/03/06 13:25:56;;;;;;;;;13.33;13.33;;;;;;;;5078825;27;45512;-51
2024/03/06 13:28:21;;;;;;;;;12.33;10.67;;;;;;;;5076592;27;45833;-52
2024/03/06 13:30:46;;;;;;;;;11.33;9.33;;;;;;;;5075150;27;45398;-53
2024/03/06 13:33:12;;;;;;;;;10.33;10.33;;;;;;;;5075127;27;45298;-54
2024/03/06 13:35:37;;;;;;;;;12.33;11.00;;;;;;;;5068225;27;45477;-53
2024/03/06 13:38:03;;;;;;;;;10.00;8.33;;;;;;;;5073050;27;46711;-52
2024/03/06 13:40:28;;;;;;;;;12.00;10.00;;;;;;;;5069845;27;46832;-54
2024/03/06 13:42:53;;;;;;;;;13.00;10.00;;;;;;;;5076284;27;45236;-53
2024/03/06 13:45:19;;;;;;;;;11.67;9.00;;;;;;;;5073892;27;45336;-60
2024/03/06 13:47:44;;;;;;;;;10.67;9.33;;;;;;;;5081608;27;45350;-55
2024/03/06 13:50:10;;;;;;;;;11.33;11.33;;;;;;;;5072295;27;46662;-54
2024/03/06 13:52:36;;;;;;;;;15.67;13.00;;;;;;;;5078588;27;45385;-53
2024/03/06 13:55:04;;;;;;;;;13.33;12.33;;;;;;;;5076779;27;45493;-53
2024/03/06 13:57:30;;;;;;;;;15.33;14.00;;;;;;;;5081334;27;45425;-53
2024/03/06 13:59:55;;;;;;;;;16.33;15.00;;;;;;;;5075948;27;47362;-54
2024/03/06 14:02:20;;;;;;;;;14.33;13.33;;;;;;;;5079626;27;45581;-54
2024/03/06 14:04:46;;;;;;;;;10.67;10.67;;;;;;;;5080801;27;45340;-54
2024/03/06 14:07:11;;;;;;;;;15.00;13.00;;;;;;;;5079093;27;45306;-57
2024/03/06 14:09:37;;;;;;;;;14.50;10.50;;;;;;;;5080283;27;46099;-52